createdAt,value
2023-02-06T00:00:51.633Z,2.10
2023-02-06T00:03:20.095Z,2.00
2023-02-06T00:05:57.927Z,2.00
2023-02-06T00:08:25.673Z,1.90
2023-02-06T00:10:53.036Z,1.80
2023-02-06T00:13:20.351Z,1.70
2023-02-06T00:15:47.198Z,1.50
2023-02-06T00:18:14.122Z,1.40
2023-02-06T00:20:40.821Z,1.40
2023-02-06T00:23:07.555Z,1.40
2023-02-06T00:25:34.669Z,1.40
2023-02-06T00:28:01.621Z,1.50
2023-02-06T00:30:28.429Z,1.60
2023-02-06T00:32:55.200Z,1.60
2023-02-06T00:35:21.965Z,1.60
2023-02-06T00:37:48.870Z,1.70
2023-02-06T00:40:16.471Z,1.90
2023-02-06T00:42:43.198Z,1.90
2023-02-06T00:45:10.159Z,1.80
2023-02-06T00:47:37.224Z,1.80
2023-02-06T00:50:04.560Z,1.80
2023-02-06T00:52:31.253Z,1.70
2023-02-06T00:54:58.314Z,1.70
2023-02-06T00:57:25.181Z,1.50
2023-02-06T00:59:52.588Z,1.50
2023-02-06T01:02:19.391Z,1.40
2023-02-06T01:04:46.212Z,1.50
2023-02-06T01:07:13.015Z,1.60
2023-02-06T01:09:39.775Z,1.50
2023-02-06T01:12:06.763Z,1.40
2023-02-06T01:14:33.551Z,1.40
2023-02-06T01:17:00.315Z,1.40
2023-02-06T01:19:27.040Z,1.50
2023-02-06T01:21:54.522Z,1.50
2023-02-06T01:24:21.245Z,1.60
2023-02-06T01:26:47.973Z,1.60
2023-02-06T01:29:14.711Z,1.70
2023-02-06T01:31:41.463Z,1.80
2023-02-06T01:34:10.120Z,1.80
2023-02-06T01:36:36.813Z,1.80
2023-02-06T01:39:05.050Z,1.80
2023-02-06T01:41:32.285Z,1.80
2023-02-06T01:44:22.402Z,1.80
2023-02-06T01:46:54.750Z,1.80
2023-02-06T01:49:41.710Z,1.70
2023-02-06T01:52:17.404Z,1.70
2023-02-06T01:54:48.548Z,1.80
2023-02-06T01:57:16.395Z,1.80
2023-02-06T01:59:49.158Z,1.80
2023-02-06T02:02:16.100Z,1.90
2023-02-06T02:04:44.441Z,1.80
2023-02-06T02:07:17.550Z,1.80
2023-02-06T02:09:44.329Z,1.90
2023-02-06T02:12:11.838Z,1.80
2023-02-06T02:14:41.565Z,2.00
2023-02-06T02:17:44.774Z,2.00
2023-02-06T02:20:55.475Z,2.00
2023-02-06T02:23:37.348Z,2.30
2023-02-06T02:26:24.534Z,2.40
2023-02-06T02:29:32.787Z,2.40
2023-02-06T02:32:27.927Z,2.40
2023-02-06T02:35:00.666Z,2.30
2023-02-06T02:37:46.833Z,2.30
2023-02-06T02:40:34.955Z,2.10
2023-02-06T02:43:14.827Z,2.10
2023-02-06T02:45:48.465Z,2.10
2023-02-06T02:48:23.707Z,2.00
2023-02-06T02:50:52.168Z,2.10
2023-02-06T02:53:19.357Z,2.10
2023-02-06T02:55:46.045Z,2.00
2023-02-06T02:58:18.065Z,1.90
2023-02-06T03:00:48.790Z,1.90
2023-02-06T03:03:20.585Z,1.80
2023-02-06T03:06:22.604Z,1.80
2023-02-06T03:09:24.943Z,1.70
2023-02-06T03:12:11.832Z,1.80
2023-02-06T03:14:52.194Z,1.70
2023-02-06T03:17:28.249Z,1.70
2023-02-06T03:19:58.993Z,1.70
2023-02-06T03:22:28.085Z,1.70
2023-02-06T03:24:57.004Z,1.80
2023-02-06T03:27:27.037Z,1.80
2023-02-06T03:29:55.153Z,1.80
2023-02-06T03:32:29.704Z,1.80
2023-02-06T03:35:21.929Z,1.80
2023-02-06T03:37:50.026Z,1.80
2023-02-06T03:40:18.025Z,1.80
2023-02-06T03:42:50.080Z,1.80
2023-02-06T03:45:36.946Z,1.70
2023-02-06T03:48:15.751Z,1.70
2023-02-06T03:50:46.105Z,1.70
2023-02-06T03:53:14.698Z,1.60
2023-02-06T03:55:44.084Z,1.50
2023-02-06T03:58:13.820Z,1.50
2023-02-06T04:00:43.128Z,1.40
2023-02-06T04:03:11.140Z,1.40
2023-02-06T04:05:38.517Z,1.40
2023-02-06T04:08:05.738Z,1.30
2023-02-06T04:10:32.493Z,1.20
2023-02-06T04:12:59.223Z,1.10
2023-02-06T04:15:26.046Z,1.00
2023-02-06T04:18:00.684Z,1.00
2023-02-06T04:20:29.238Z,0.80
2023-02-06T04:22:57.211Z,0.80
2023-02-06T04:25:24.218Z,0.80
2023-02-06T04:27:51.257Z,0.70
2023-02-06T04:30:18.385Z,0.70
2023-02-06T04:32:45.379Z,0.80
2023-02-06T04:35:12.106Z,0.60
2023-02-06T04:37:38.854Z,0.60
2023-02-06T04:40:06.061Z,0.60
2023-02-06T04:42:32.834Z,0.50
2023-02-06T04:44:59.523Z,0.60
2023-02-06T04:47:26.284Z,0.50
2023-02-06T04:49:53.094Z,0.40
2023-02-06T04:52:19.771Z,0.40
2023-02-06T04:54:47.449Z,0.40
2023-02-06T04:57:14.232Z,0.40
2023-02-06T04:59:40.952Z,0.30
2023-02-06T05:02:07.686Z,0.30
2023-02-06T05:04:34.408Z,0.30
2023-02-06T05:07:01.146Z,0.30
2023-02-06T05:09:27.926Z,0.20
2023-02-06T05:11:54.631Z,0.20
2023-02-06T05:14:21.372Z,0.10
2023-02-06T05:16:48.550Z,0.20
2023-02-06T05:19:15.217Z,0.20
2023-02-06T05:21:41.927Z,0.20
2023-02-06T05:24:08.711Z,0.20
2023-02-06T05:26:35.526Z,0.20
2023-02-06T05:29:02.207Z,0.00
2023-02-06T05:31:29.041Z,0.00
2023-02-06T05:33:55.805Z,0.00
2023-02-06T05:36:23.110Z,0.00
2023-02-06T05:38:50.266Z,0.00
2023-02-06T05:41:17.430Z,0.00
2023-02-06T05:43:44.462Z,0.00
2023-02-06T05:46:12.843Z,0.00
2023-02-06T05:48:39.983Z,0.00
2023-02-06T05:51:06.750Z,0.00
2023-02-06T05:53:33.440Z,-0.10
2023-02-06T05:56:00.182Z,-0.10
2023-02-06T05:58:27.060Z,-0.10
2023-02-06T06:00:53.779Z,-0.10
2023-02-06T06:03:20.690Z,-0.10
2023-02-06T06:05:47.725Z,0.00
2023-02-06T06:08:15.107Z,0.10
2023-02-06T06:10:41.877Z,0.20
2023-02-06T06:13:08.707Z,0.20
2023-02-06T06:15:35.679Z,0.40
2023-02-06T06:18:02.886Z,0.40
2023-02-06T06:20:29.827Z,0.30
2023-02-06T06:22:56.618Z,0.20
2023-02-06T06:25:23.359Z,0.30
2023-02-06T06:27:50.142Z,0.30
2023-02-06T06:30:17.128Z,0.20
2023-02-06T06:32:43.807Z,0.30
2023-02-06T06:35:10.630Z,0.40
2023-02-06T06:37:37.416Z,0.40
2023-02-06T06:40:04.350Z,0.40
2023-02-06T06:42:31.087Z,0.30
2023-02-06T06:44:58.719Z,0.30
2023-02-06T06:47:25.518Z,0.30
2023-02-06T06:49:52.309Z,0.30
2023-02-06T06:52:24.936Z,0.30
2023-02-06T06:54:53.117Z,0.40
2023-02-06T06:57:21.081Z,0.40
2023-02-06T06:59:47.901Z,0.40
2023-02-06T07:02:15.232Z,0.40
2023-02-06T07:04:42.366Z,0.40
2023-02-06T07:07:09.394Z,0.50
2023-02-06T07:09:36.146Z,0.30
2023-02-06T07:12:02.976Z,0.40
2023-02-06T07:14:29.696Z,0.40
2023-02-06T07:16:56.566Z,0.50
2023-02-06T07:19:23.367Z,0.40
2023-02-06T07:21:50.342Z,0.20
2023-02-06T07:24:17.105Z,0.20
2023-02-06T07:26:44.649Z,0.30
2023-02-06T07:29:11.360Z,0.40
2023-02-06T07:31:38.109Z,0.50
2023-02-06T07:34:04.876Z,0.60
2023-02-06T07:36:31.682Z,0.60
2023-02-06T07:38:58.430Z,0.80
2023-02-06T07:41:25.125Z,0.80
2023-02-06T07:43:54.075Z,0.80
2023-02-06T07:46:21.293Z,0.80
2023-02-06T07:48:48.092Z,0.80
2023-02-06T07:51:14.842Z,0.50
2023-02-06T07:53:41.619Z,0.60
2023-02-06T07:56:17.082Z,0.60
2023-02-06T07:58:44.258Z,0.70
2023-02-06T08:01:11.070Z,0.70
2023-02-06T08:03:38.135Z,0.60
2023-02-06T08:06:10.372Z,0.80
2023-02-06T08:08:37.522Z,0.80
2023-02-06T08:11:08.816Z,0.80
2023-02-06T08:13:35.877Z,0.80
2023-02-06T08:16:07.963Z,0.80
2023-02-06T08:18:35.028Z,0.60
2023-02-06T08:21:06.977Z,0.60
2023-02-06T08:23:33.770Z,0.60
2023-02-06T08:26:12.140Z,0.60
2023-02-06T08:28:42.091Z,0.70
2023-02-06T08:31:15.998Z,0.80
2023-02-06T08:33:43.441Z,0.80
2023-02-06T08:36:11.598Z,0.80
2023-02-06T08:38:38.746Z,0.80
2023-02-06T08:41:13.998Z,0.90
2023-02-06T08:43:40.683Z,1.00
2023-02-06T08:46:07.392Z,1.10
2023-02-06T08:48:34.093Z,1.10
2023-02-06T08:51:05.491Z,1.10
2023-02-06T08:53:33.868Z,1.00
2023-02-06T08:56:09.190Z,1.10
2023-02-06T08:58:37.538Z,1.00
2023-02-06T09:01:14.285Z,1.00
2023-02-06T09:03:44.095Z,1.10
2023-02-06T09:06:11.712Z,1.20
2023-02-06T09:08:39.942Z,1.20
2023-02-06T09:11:11.455Z,1.40
2023-02-06T09:13:38.938Z,1.40
2023-02-06T09:16:06.216Z,1.40
2023-02-06T09:18:33.037Z,1.40
2023-02-06T09:21:07.632Z,1.50
2023-02-06T09:23:35.089Z,1.70
2023-02-06T09:26:02.003Z,1.80
2023-02-06T09:28:28.709Z,1.90
2023-02-06T09:30:55.930Z,2.10
2023-02-06T09:33:22.639Z,1.90
2023-02-06T09:35:49.428Z,1.90
2023-02-06T09:38:16.320Z,1.90
2023-02-06T09:40:43.155Z,2.00
2023-02-06T09:43:13.740Z,2.00
2023-02-06T09:45:41.605Z,2.00
2023-02-06T09:48:20.297Z,2.00
2023-02-06T09:51:07.647Z,2.00
2023-02-06T09:53:55.689Z,2.00
2023-02-06T09:56:36.707Z,2.00
2023-02-06T09:59:25.051Z,2.00
2023-02-06T10:02:12.271Z,2.20
2023-02-06T10:04:59.802Z,2.00
2023-02-06T10:08:08.073Z,2.20
2023-02-06T10:10:52.279Z,2.20
2023-02-06T10:13:30.025Z,2.20
2023-02-06T10:16:04.425Z,2.30
2023-02-06T10:18:49.232Z,2.40
2023-02-06T10:21:25.248Z,2.40
2023-02-06T10:24:03.167Z,2.50
2023-02-06T10:26:30.047Z,2.40
2023-02-06T10:28:59.662Z,2.40
2023-02-06T10:31:45.004Z,2.40
2023-02-06T10:34:30.536Z,2.50
2023-02-06T10:37:08.148Z,2.50
2023-02-06T10:39:45.501Z,2.50
2023-02-06T10:42:51.278Z,2.70
2023-02-06T10:45:34.103Z,2.70
2023-02-06T10:48:01.494Z,2.80
2023-02-06T10:50:36.969Z,2.70
2023-02-06T10:53:25.635Z,2.80
2023-02-06T10:56:01.451Z,3.00
2023-02-06T10:58:37.144Z,3.00
2023-02-06T11:01:20.047Z,3.00
2023-02-06T11:04:06.221Z,3.00
2023-02-06T11:06:33.340Z,3.10
2023-02-06T11:09:00.080Z,3.10
2023-02-06T11:11:35.309Z,3.30
2023-02-06T11:14:15.729Z,3.30
2023-02-06T11:16:43.826Z,3.30
2023-02-06T11:19:26.188Z,3.30
2023-02-06T11:22:10.465Z,3.30
2023-02-06T11:24:40.563Z,3.30
2023-02-06T11:27:20.580Z,3.30
2023-02-06T11:29:52.038Z,3.40
2023-02-06T11:32:35.975Z,3.40
2023-02-06T11:35:10.905Z,3.30
2023-02-06T11:37:40.026Z,3.10
2023-02-06T11:40:18.820Z,3.10
2023-02-06T11:42:48.073Z,3.10
2023-02-06T11:45:25.755Z,3.10
2023-02-06T11:47:52.657Z,3.30
2023-02-06T11:50:30.044Z,3.30
2023-02-06T11:53:00.685Z,3.30
2023-02-06T11:55:34.161Z,3.30
2023-02-06T11:58:02.636Z,3.30
2023-02-06T12:00:29.561Z,3.30
2023-02-06T12:02:57.369Z,3.40
2023-02-06T12:05:28.012Z,3.30
2023-02-06T12:08:10.399Z,3.40
2023-02-06T12:10:55.874Z,3.50
2023-02-06T12:13:28.987Z,3.60
2023-02-06T12:15:59.364Z,3.60
2023-02-06T12:18:30.304Z,3.70
2023-02-06T12:21:00.161Z,3.90
2023-02-06T12:23:48.794Z,3.90
2023-02-06T12:26:19.073Z,3.90
2023-02-06T12:29:01.444Z,3.80
2023-02-06T12:31:55.590Z,3.80
2023-02-06T12:34:31.686Z,3.80
2023-02-06T12:37:20.672Z,3.70
2023-02-06T12:39:48.773Z,3.70
2023-02-06T12:42:24.638Z,3.60
2023-02-06T12:44:55.025Z,3.60
2023-02-06T12:47:34.756Z,3.50
2023-02-06T12:50:13.108Z,3.60
2023-02-06T12:52:56.210Z,3.60
2023-02-06T12:55:37.227Z,3.70
2023-02-06T12:58:04.702Z,3.90
2023-02-06T13:00:55.073Z,3.90
2023-02-06T13:03:50.978Z,4.00
2023-02-06T13:06:24.247Z,4.00
2023-02-06T13:08:58.397Z,4.00
2023-02-06T13:11:51.661Z,3.90
2023-02-06T13:14:24.319Z,3.90
2023-02-06T13:17:07.861Z,3.70
2023-02-06T13:19:37.427Z,3.70
2023-02-06T13:22:10.186Z,3.60
2023-02-06T13:24:38.395Z,3.50
2023-02-06T13:27:07.798Z,3.50
2023-02-06T13:29:48.442Z,3.40
2023-02-06T13:32:15.358Z,3.30
2023-02-06T13:34:44.851Z,3.30
2023-02-06T13:37:25.786Z,3.30
2023-02-06T13:40:23.658Z,3.30
2023-02-06T13:43:04.447Z,3.30
2023-02-06T13:45:51.636Z,3.30
2023-02-06T13:48:33.448Z,3.30
2023-02-06T13:51:20.542Z,3.20
2023-02-06T13:53:50.398Z,3.20
2023-02-06T13:56:36.760Z,3.20
2023-02-06T13:59:25.827Z,3.10
2023-02-06T14:01:53.406Z,3.20
2023-02-06T14:04:27.035Z,3.20
2023-02-06T14:07:03.289Z,3.20
2023-02-06T14:10:28.842Z,3.20
2023-02-06T14:13:28.451Z,3.10
2023-02-06T14:16:10.511Z,3.10
2023-02-06T14:18:55.700Z,3.10
2023-02-06T14:21:50.253Z,3.10
2023-02-06T14:24:53.620Z,3.00
2023-02-06T14:27:39.504Z,2.90
2023-02-06T14:30:31.865Z,3.00
2023-02-06T14:33:26.381Z,3.00
2023-02-06T14:36:40.477Z,2.90
2023-02-06T14:39:30.370Z,2.80
2023-02-06T14:41:57.844Z,2.80
2023-02-06T14:44:30.273Z,2.70
2023-02-06T14:46:57.953Z,2.70
2023-02-06T14:49:35.909Z,2.80
2023-02-06T14:52:03.804Z,2.80
2023-02-06T14:54:34.970Z,2.80
2023-02-06T14:57:04.660Z,2.80
2023-02-06T14:59:32.160Z,2.70
2023-02-06T15:02:10.860Z,2.70
2023-02-06T15:04:45.471Z,2.60
2023-02-06T15:07:41.537Z,2.60
2023-02-06T15:10:13.246Z,2.50
2023-02-06T15:12:40.030Z,2.50
2023-02-06T15:15:21.402Z,2.60
2023-02-06T15:18:06.458Z,2.60
2023-02-06T15:20:40.278Z,2.80
2023-02-06T15:23:23.927Z,2.80
2023-02-06T15:26:08.859Z,2.90
2023-02-06T15:28:36.682Z,3.00
2023-02-06T15:31:04.096Z,3.00
2023-02-06T15:33:33.677Z,3.00
2023-02-06T15:36:03.593Z,3.00
2023-02-06T15:38:32.926Z,2.90
2023-02-06T15:41:03.637Z,2.90
2023-02-06T15:43:30.816Z,2.70
2023-02-06T15:46:00.959Z,2.50
2023-02-06T15:48:36.895Z,2.50
2023-02-06T15:51:38.456Z,2.30
2023-02-06T15:54:26.074Z,2.10
2023-02-06T15:57:15.016Z,2.10
2023-02-06T15:59:42.096Z,2.00
2023-02-06T16:02:21.510Z,1.90
2023-02-06T16:04:52.567Z,1.80
2023-02-06T16:07:23.593Z,1.70
2023-02-06T16:10:13.470Z,1.70
2023-02-06T16:12:42.318Z,1.60
2023-02-06T16:15:31.431Z,1.50
2023-02-06T16:18:01.800Z,1.50
2023-02-06T16:20:40.105Z,1.40
2023-02-06T16:23:45.247Z,1.40
2023-02-06T16:26:18.975Z,1.40
2023-02-06T16:29:20.640Z,1.30
2023-02-06T16:31:56.864Z,1.30
2023-02-06T16:34:36.530Z,1.20
2023-02-06T16:37:10.720Z,1.10
2023-02-06T16:39:38.544Z,1.10
2023-02-06T16:42:05.439Z,1.10
2023-02-06T16:44:43.945Z,1.10
2023-02-06T16:47:14.024Z,1.00
2023-02-06T16:49:40.852Z,1.00
2023-02-06T16:52:08.186Z,0.90
2023-02-06T16:54:35.181Z,0.90
2023-02-06T16:57:32.888Z,0.90
2023-02-06T16:59:59.697Z,0.90
2023-02-06T17:02:27.598Z,0.80
2023-02-06T17:04:55.217Z,0.80
2023-02-06T17:07:26.224Z,0.80
2023-02-06T17:09:55.442Z,0.80
2023-02-06T17:12:22.843Z,0.60
2023-02-06T17:14:49.700Z,0.60
2023-02-06T17:17:19.644Z,0.60
2023-02-06T17:19:47.292Z,0.60
2023-02-06T17:22:14.480Z,0.60
2023-02-06T17:24:42.165Z,0.60
2023-02-06T17:27:13.740Z,0.60
2023-02-06T17:29:40.462Z,0.50
2023-02-06T17:32:08.392Z,0.40
2023-02-06T17:34:35.995Z,0.40
2023-02-06T17:37:02.877Z,0.30
2023-02-06T17:39:29.640Z,0.30
2023-02-06T17:41:56.425Z,0.20
2023-02-06T17:44:23.105Z,0.10
2023-02-06T17:46:49.866Z,0.00
2023-02-06T17:49:17.340Z,0.00
2023-02-06T17:51:45.311Z,0.00
2023-02-06T17:54:12.816Z,-0.10
2023-02-06T17:56:39.737Z,-0.10
2023-02-06T17:59:06.456Z,-0.10
2023-02-06T18:01:33.683Z,-0.10
2023-02-06T18:04:03.731Z,-0.10
2023-02-06T18:06:34.307Z,-0.10
2023-02-06T18:09:01.000Z,-0.10
2023-02-06T18:11:27.808Z,-0.20
2023-02-06T18:13:55.772Z,-0.20
2023-02-06T18:16:28.630Z,-0.30
2023-02-06T18:18:55.487Z,-0.30
2023-02-06T18:21:24.455Z,-0.30
2023-02-06T18:23:52.967Z,-0.20
2023-02-06T18:26:19.988Z,-0.10
2023-02-06T18:28:46.979Z,0.00
2023-02-06T18:31:28.665Z,0.00
2023-02-06T18:33:57.226Z,0.00
2023-02-06T18:36:24.543Z,0.00
2023-02-06T18:38:51.919Z,0.00
2023-02-06T18:41:37.435Z,0.00
2023-02-06T18:44:07.175Z,-0.10
2023-02-06T18:46:34.398Z,-0.10
2023-02-06T18:49:01.449Z,-0.10
2023-02-06T18:51:29.342Z,-0.20
2023-02-06T18:54:00.041Z,-0.20
2023-02-06T18:56:27.369Z,-0.20
2023-02-06T18:58:54.411Z,-0.10
2023-02-06T19:01:23.105Z,-0.10
2023-02-06T19:03:52.028Z,-0.20
2023-02-06T19:06:23.123Z,-0.20
2023-02-06T19:08:50.408Z,-0.20
2023-02-06T19:11:17.270Z,-0.20
2023-02-06T19:13:44.588Z,-0.10
2023-02-06T19:16:16.804Z,-0.10
2023-02-06T19:18:46.066Z,-0.10
2023-02-06T19:21:18.031Z,-0.20
2023-02-06T19:23:46.576Z,-0.20
2023-02-06T19:26:16.223Z,-0.20
2023-02-06T19:28:43.634Z,-0.30
2023-02-06T19:31:11.878Z,-0.30
2023-02-06T19:33:40.898Z,-0.30
2023-02-06T19:36:10.852Z,-0.30
2023-02-06T19:38:37.864Z,-0.40
2023-02-06T19:41:10.469Z,-0.30
2023-02-06T19:43:37.647Z,-0.30
2023-02-06T19:46:06.091Z,-0.30
2023-02-06T19:48:33.222Z,-0.20
2023-02-06T19:51:10.341Z,-0.30
2023-02-06T19:53:37.084Z,-0.30
2023-02-06T19:56:04.855Z,-0.30
2023-02-06T19:58:32.870Z,-0.30
2023-02-06T20:01:11.401Z,-0.30
2023-02-06T20:03:38.571Z,-0.20
2023-02-06T20:06:08.116Z,-0.10
2023-02-06T20:08:35.061Z,-0.10
2023-02-06T20:11:11.429Z,-0.10
2023-02-06T20:13:38.941Z,-0.10
2023-02-06T20:16:07.042Z,-0.10
2023-02-06T20:18:35.417Z,-0.20
2023-02-06T20:21:02.628Z,-0.10
2023-02-06T20:23:30.012Z,-0.20
2023-02-06T20:25:56.740Z,-0.20
2023-02-06T20:28:24.122Z,-0.40
2023-02-06T20:30:50.951Z,-0.50
2023-02-06T20:33:17.804Z,-0.50
2023-02-06T20:35:45.752Z,-0.50
2023-02-06T20:38:12.670Z,-0.60
2023-02-06T20:40:43.681Z,-0.70
2023-02-06T20:43:10.480Z,-0.70
2023-02-06T20:45:37.195Z,-0.80
2023-02-06T20:48:04.108Z,-0.80
2023-02-06T20:50:30.996Z,-0.80
2023-02-06T20:52:57.735Z,-0.90
2023-02-06T20:55:24.481Z,-0.90
2023-02-06T20:57:51.234Z,-0.90
2023-02-06T21:00:18.120Z,-0.90
2023-02-06T21:02:44.917Z,-0.90
2023-02-06T21:05:11.736Z,-0.90
2023-02-06T21:07:39.833Z,-0.90
2023-02-06T21:10:06.888Z,-1.10
2023-02-06T21:12:33.713Z,-1.10
2023-02-06T21:15:00.698Z,-1.10
2023-02-06T21:17:27.551Z,-1.10
2023-02-06T21:19:54.294Z,-1.10
2023-02-06T21:22:21.266Z,-1.10
2023-02-06T21:24:47.997Z,-1.10
2023-02-06T21:27:14.808Z,-1.30
2023-02-06T21:29:41.614Z,-1.30
2023-02-06T21:32:13.987Z,-1.30
2023-02-06T21:34:41.494Z,-1.30
2023-02-06T21:37:08.666Z,-1.40
2023-02-06T21:39:37.852Z,-1.40
2023-02-06T21:42:04.962Z,-1.40
2023-02-06T21:44:31.712Z,-1.40
2023-02-06T21:46:58.456Z,-1.40
2023-02-06T21:49:25.235Z,-1.50
2023-02-06T21:51:53.092Z,-1.50
2023-02-06T21:54:19.868Z,-1.50
2023-02-06T21:56:47.182Z,-1.50
2023-02-06T21:59:13.914Z,-1.60
2023-02-06T22:01:41.238Z,-1.60
2023-02-06T22:04:10.414Z,-1.60
2023-02-06T22:06:38.238Z,-1.60
2023-02-06T22:09:07.755Z,-1.70
2023-02-06T22:11:41.673Z,-1.60
2023-02-06T22:14:12.005Z,-1.70
2023-02-06T22:16:39.384Z,-1.70
2023-02-06T22:19:06.922Z,-1.70
2023-02-06T22:21:34.663Z,-1.70
2023-02-06T22:24:06.045Z,-1.70
2023-02-06T22:26:36.690Z,-1.70
2023-02-06T22:29:03.906Z,-1.70
2023-02-06T22:31:32.764Z,-1.70
2023-02-06T22:34:00.875Z,-1.70
2023-02-06T22:36:30.358Z,-1.70
2023-02-06T22:38:59.766Z,-1.70
2023-02-06T22:41:27.074Z,-1.80
2023-02-06T22:43:53.822Z,-1.80
2023-02-06T22:46:34.897Z,-1.80
2023-02-06T22:49:02.137Z,-1.80
2023-02-06T22:51:28.895Z,-1.70
2023-02-06T22:53:56.094Z,-1.70
2023-02-06T22:56:36.750Z,-1.70
2023-02-06T22:59:24.675Z,-1.80
2023-02-06T23:01:57.984Z,-1.90
2023-02-06T23:04:30.464Z,-1.80
2023-02-06T23:06:57.605Z,-1.90
2023-02-06T23:09:32.966Z,-1.90
2023-02-06T23:12:00.993Z,-1.90
2023-02-06T23:14:29.928Z,-2.00
2023-02-06T23:16:56.962Z,-2.10
2023-02-06T23:19:23.951Z,-2.10
2023-02-06T23:21:51.304Z,-2.10
2023-02-06T23:24:19.057Z,-2.20
2023-02-06T23:26:47.521Z,-2.20
2023-02-06T23:29:17.233Z,-2.20
2023-02-06T23:31:45.726Z,-2.20
2023-02-06T23:34:13.931Z,-2.20
2023-02-06T23:36:40.737Z,-2.30
2023-02-06T23:39:07.582Z,-2.30
2023-02-06T23:41:34.833Z,-2.20
2023-02-06T23:44:04.336Z,-2.20
2023-02-06T23:46:32.655Z,-2.10
2023-02-06T23:48:59.546Z,-2.20
2023-02-06T23:51:27.015Z,-2.20
2023-02-06T23:53:53.983Z,-2.30
2023-02-06T23:56:23.965Z,-2.20
2023-02-06T23:58:51.475Z,-2.20
